Time;durP1;ratioP1;P1;durP2;ratioP2;P2;SDS_P1;SDS_P2;PMS_P1;PMS_P2;Temp;Humidity;BMP_temperature;BMP_pressure;BME280_temperature;BME280_humidity;BME280_pressure;Samples;Min_cycle;Max_cycle;Signal;HPM_P1;HPM_P2
2024/02/23 00:02:02;;;;;;;8.18;1.15;;;7.90;99.90;;;;;;5061171;28;20024;-81
2024/02/23 00:04:29;;;;;;;3.83;0.88;;;7.90;99.90;;;;;;5060127;28;20044;-83
2024/02/23 00:06:55;;;;;;;5.45;1.23;;;8.00;99.90;;;;;;5066355;28;20139;-85
2024/02/23 00:09:22;;;;;;;7.32;0.98;;;9.70;99.90;;;;;;5061257;28;20097;-88
2024/02/23 00:11:51;;;;;;;4.57;0.90;;;7.90;99.90;;;;;;5045382;28;20128;-85
2024/02/23 00:14:18;;;;;;;7.80;1.20;;;8.10;99.90;;;;;;5055252;28;20485;-82
2024/02/23 00:16:51;;;;;;;7.55;1.10;;;8.00;99.90;;;;;;5067126;28;20028;-83
2024/02/23 00:19:21;;;;;;;2.53;1.08;;;8.10;99.90;;;;;;5067924;28;20039;-83
2024/02/23 00:21:49;;;;;;;5.63;1.08;;;8.00;99.90;;;;;;5080133;28;20119;-81
2024/02/23 00:24:31;;;;;;;4.28;0.90;;;7.90;99.90;;;;;;5061358;28;20032;-81
2024/02/23 00:27:00;;;;;;;3.63;1.02;;;7.90;99.90;;;;;;5038199;28;20124;-83
2024/02/23 00:29:26;;;;;;;3.70;0.80;;;8.00;99.90;;;;;;5043076;28;20037;-84
2024/02/23 00:31:56;;;;;;;2.55;0.80;;;8.10;99.90;;;;;;5070897;28;20044;-84
2024/02/23 00:34:24;;;;;;;3.67;0.70;;;7.90;99.90;;;;;;5061195;28;20306;-87
2024/02/23 00:36:54;;;;;;;1.92;0.50;;;7.80;99.90;;;;;;5059958;28;20086;-81
2024/02/23 00:39:32;;;;;;;2.58;0.60;;;7.50;99.90;;;;;;5059043;28;20116;-83
2024/02/23 00:42:03;;;;;;;2.45;0.60;;;7.50;99.90;;;;;;5057327;28;20028;-82
2024/02/23 00:44:33;;;;;;;3.50;0.68;;;7.30;99.90;;;;;;5062585;28;20029;-82
2024/02/23 00:47:04;;;;;;;2.67;0.70;;;7.20;99.90;;;;;;5060963;28;20051;-82
2024/02/23 00:49:31;;;;;;;4.30;0.70;;;7.10;99.90;;;;;;5057326;28;20035;-81
2024/02/23 00:51:56;;;;;;;1.65;0.77;;;6.90;99.90;;;;;;5060089;28;20029;-81
2024/02/23 00:54:24;;;;;;;1.80;0.60;;;7.30;99.90;;;;;;5055019;28;20399;-82
2024/02/23 00:56:50;;;;;;;3.03;0.70;;;6.70;99.90;;;;;;5063067;28;20104;-82
2024/02/23 00:59:25;;;;;;;1.97;0.60;;;6.60;99.90;;;;;;5062560;28;20059;-83
2024/02/23 01:04:21;;;;;;;1.52;0.65;;;6.40;99.90;;;;;;5009568;28;20059;-83
2024/02/23 01:06:47;;;;;;;4.70;1.67;;;6.60;99.90;;;;;;5016985;28;20033;-84
2024/02/23 01:09:13;;;;;;;5.60;0.90;;;7.10;99.90;;;;;;5000838;28;20406;-84
2024/02/23 01:11:38;;;;;;;4.90;0.77;;;6.30;99.90;;;;;;4998653;28;20037;-83
2024/02/23 01:14:06;;;;;;;4.70;0.90;;;7.40;99.90;;;;;;4995822;28;20044;-86
2024/02/23 01:16:32;;;;;;;2.22;0.73;;;6.30;99.90;;;;;;4987867;28;20033;-83
2024/02/23 01:18:58;;;;;;;3.22;0.90;;;7.00;99.90;;;;;;4997186;28;20026;-82
2024/02/23 01:21:24;;;;;;;2.20;0.73;;;6.30;99.90;;;;;;4979142;28;20023;-85
2024/02/23 01:23:49;;;;;;;4.45;0.80;;;6.70;99.90;;;;;;4995343;28;20065;-83
2024/02/23 01:26:15;;;;;;;3.08;0.70;;;6.70;99.90;;;;;;4977683;28;20034;-81
2024/02/23 01:28:40;;;;;;;3.55;0.70;;;6.90;99.90;;;;;;4999755;28;20037;-87
2024/02/23 01:31:13;;;;;;;3.55;0.75;;;7.20;99.90;;;;;;4996735;28;20030;-87
2024/02/23 01:33:39;;;;;;;2.45;0.52;;;7.00;99.90;;;;;;4994917;28;20034;-83
2024/02/23 01:36:05;;;;;;;2.50;0.80;;;7.50;99.90;;;;;;4989600;28;20035;-85
2024/02/23 01:38:32;;;;;;;2.67;0.60;;;6.80;99.90;;;;;;4981025;28;20077;-85
2024/02/23 01:40:59;;;;;;;1.95;0.57;;;7.10;99.90;;;;;;4999554;28;20022;-84
2024/02/23 01:43:24;;;;;;;1.80;0.50;;;6.80;99.90;;;;;;5000454;28;20026;-85
2024/02/23 01:45:50;;;;;;;1.48;0.32;;;6.80;99.90;;;;;;5001687;28;20033;-87
2024/02/23 01:48:16;;;;;;;1.50;0.50;;;7.70;99.90;;;;;;5005771;28;20090;-84
2024/02/23 01:50:43;;;;;;;2.42;0.50;;;6.70;99.90;;;;;;5003121;28;20034;-86
2024/02/23 01:53:10;;;;;;;1.33;0.50;;;9.10;99.90;;;;;;5004084;28;20030;-86
2024/02/23 01:55:37;;;;;;;0.70;0.43;;;6.60;99.90;;;;;;4984179;28;20717;-87
2024/02/23 01:58:04;;;;;;;1.75;0.50;;;6.50;99.90;;;;;;4997119;28;20034;-84
2024/02/23 02:00:31;;;;;;;2.55;0.80;;;6.50;99.90;;;;;;4977090;28;20023;-84
2024/02/23 02:02:57;;;;;;;2.58;0.40;;;6.40;99.90;;;;;;4994948;28;20034;-83
2024/02/23 02:05:23;;;;;;;2.22;0.43;;;6.40;99.90;;;;;;4980216;28;20027;-85
2024/02/23 02:07:53;;;;;;;2.88;0.80;;;6.30;99.90;;;;;;4978453;28;20037;-84
2024/02/23 02:10:21;;;;;;;2.95;0.85;;;6.30;99.90;;;;;;4977381;28;20027;-83
2024/02/23 02:12:47;;;;;;;2.70;0.70;;;6.20;99.90;;;;;;4995536;28;20038;-81
2024/02/23 02:15:12;;;;;;;4.68;0.77;;;6.30;99.90;;;;;;4978824;28;20030;-84
2024/02/23 02:17:38;;;;;;;2.17;0.60;;;6.20;99.90;;;;;;4980275;28;20395;-84
2024/02/23 02:20:04;;;;;;;2.22;0.60;;;6.70;99.90;;;;;;4982924;28;20539;-83
2024/02/23 02:22:32;;;;;;;4.50;0.80;;;6.40;99.90;;;;;;4979833;28;20085;-87
2024/02/23 02:24:58;;;;;;;1.95;0.63;;;6.60;99.90;;;;;;4984150;28;20109;-84
2024/02/23 02:27:23;;;;;;;5.22;0.95;;;6.40;99.90;;;;;;4976644;28;20457;-84
2024/02/23 02:29:52;;;;;;;3.90;0.60;;;8.30;99.90;;;;;;4983177;28;20042;-84
2024/02/23 02:32:18;;;;;;;2.15;0.73;;;6.30;99.90;;;;;;4997393;28;20030;-84
2024/02/23 02:34:44;;;;;;;1.40;0.70;;;;;;;;;;5002573;28;20469;-82
2024/02/23 02:37:10;;;;;;;4.03;0.63;;;;;;;;;;4985348;28;20587;-82
2024/02/23 02:39:36;;;;;;;2.50;0.88;;;;;;;;;;4983616;28;20030;-82
2024/02/23 02:42:02;;;;;;;4.25;0.77;;;;;;;;;;4987646;28;20034;-86
2024/02/23 02:44:30;;;;;;;3.28;0.50;;;;;;;;;;4986020;28;20108;-86
2024/02/23 02:46:57;;;;;;;5.97;0.70;;;;;;;;;;5003485;28;20039;-85
2024/02/23 02:49:24;;;;;;;4.20;0.88;;;;;;;;;;4999001;28;20054;-84
2024/02/23 02:51:50;;;;;;;4.28;0.77;;;;;;;;;;4992754;28;20034;-87
2024/02/23 02:54:16;;;;;;;3.65;0.70;;;;;;;;;;4996363;28;20041;-86
2024/02/23 02:56:43;;;;;;;3.22;0.65;;;;;;;;;;5012750;28;20054;-88
2024/02/23 02:59:10;;;;;;;4.35;0.93;;;;;;;;;;5009940;28;20090;-84
2024/02/23 03:01:36;;;;;;;3.42;0.95;;;;;;;;;;5014542;28;20565;-83
2024/02/23 03:04:01;;;;;;;3.45;1.42;;;6.00;99.90;;;;;;5011361;28;20034;-86
2024/02/23 03:06:27;;;;;;;4.38;0.80;;;7.90;99.90;;;;;;4995217;28;20018;-86
2024/02/23 03:08:53;;;;;;;5.30;1.13;;;6.50;99.90;;;;;;5012067;28;20034;-85
2024/02/23 03:11:19;;;;;;;3.22;0.82;;;;;;;;;;4994513;28;20149;-85
2024/02/23 03:13:44;;;;;;;3.42;0.88;;;6.00;99.90;;;;;;4990782;28;20031;-82
2024/02/23 03:16:23;;;;;;;3.05;0.77;;;7.70;99.90;;;;;;4983973;28;20038;-85
2024/02/23 03:18:48;;;;;;;1.63;0.82;;;6.10;99.90;;;;;;4990331;28;20030;-82
2024/02/23 03:21:15;;;;;;;4.25;0.90;;;;;;;;;;4984963;28;20118;-82
2024/02/23 03:23:45;;;;;;;5.95;1.10;;;6.00;99.90;;;;;;4980944;28;20457;-84
2024/02/23 03:26:10;;;;;;;5.65;1.08;;;6.00;99.90;;;;;;4978957;28;20046;-83
2024/02/23 03:28:36;;;;;;;3.70;0.80;;;6.70;99.90;;;;;;4984971;28;20034;-84
2024/02/23 03:31:02;;;;;;;6.90;1.10;;;6.80;99.90;;;;;;5001364;28;20040;-84
2024/02/23 03:33:27;;;;;;;4.97;1.30;;;6.90;99.90;;;;;;5000782;28;20390;-85
2024/02/23 03:35:53;;;;;;;5.88;0.98;;;8.20;99.90;;;;;;4998508;28;20049;-83
2024/02/23 03:38:19;;;;;;;4.45;0.80;;;5.90;99.90;;;;;;4986963;28;20041;-83
2024/02/23 03:40:45;;;;;;;3.22;0.75;;;6.10;99.90;;;;;;5004808;28;20053;-86
2024/02/23 03:43:10;;;;;;;8.32;1.10;;;8.50;99.90;;;;;;4988059;28;20125;-86
2024/02/23 03:45:36;;;;;;;6.00;1.27;;;7.20;99.90;;;;;;5003513;28;20094;-86
2024/02/23 03:48:04;;;;;;;4.90;1.10;;;6.00;99.90;;;;;;4986870;28;20080;-86
2024/02/23 03:50:30;;;;;;;4.60;1.17;;;6.00;99.90;;;;;;5000278;28;20033;-87
2024/02/23 03:52:56;;;;;;;4.03;0.90;;;7.20;99.90;;;;;;5009005;28;20027;-85
2024/02/23 03:55:22;;;;;;;4.85;0.95;;;7.60;99.90;;;;;;4984444;28;20483;-86
2024/02/23 03:57:47;;;;;;;4.50;1.00;;;6.10;99.90;;;;;;4985191;28;20033;-85
2024/02/23 04:00:14;;;;;;;3.92;1.20;;;6.00;99.90;;;;;;4990601;28;20040;-86
2024/02/23 04:02:40;;;;;;;5.22;1.35;;;5.90;99.90;;;;;;5006197;28;20039;-88
2024/02/23 04:05:06;;;;;;;5.47;1.00;;;5.90;99.90;;;;;;4989108;28;20117;-83
2024/02/23 04:07:32;;;;;;;4.50;1.10;;;5.90;99.90;;;;;;4985523;28;20121;-85
2024/02/23 04:09:58;;;;;;;5.93;0.90;;;6.40;99.90;;;;;;4983677;28;20505;-87
2024/02/23 04:12:24;;;;;;;4.88;1.05;;;6.90;99.90;;;;;;4983839;28;20045;-88
2024/02/23 04:14:50;;;;;;;4.40;1.25;;;5.80;99.90;;;;;;4992096;28;20030;-86
2024/02/23 04:17:16;;;;;;;5.10;1.25;;;5.70;99.90;;;;;;4990800;28;20040;-87
2024/02/23 04:19:42;;;;;;;2.20;0.85;;;5.90;99.90;;;;;;4989966;28;20545;-87
2024/02/23 04:22:09;;;;;;;8.60;1.08;;;5.80;99.90;;;;;;5010525;28;20029;-87
2024/02/23 04:24:38;;;;;;;7.78;1.20;;;5.70;99.90;;;;;;4997544;28;20093;-85
2024/02/23 04:27:05;;;;;;;7.10;1.63;;;5.70;99.90;;;;;;5006984;28;20027;-85
2024/02/23 04:29:32;;;;;;;4.95;1.00;;;6.80;99.90;;;;;;5003063;28;20030;-84
2024/02/23 04:31:58;;;;;;;4.10;0.90;;;6.00;99.90;;;;;;4992729;28;20467;-84
2024/02/23 04:34:23;;;;;;;5.43;1.67;;;5.50;99.90;;;;;;4990612;28;20034;-88
2024/02/23 04:36:49;;;;;;;4.75;0.95;;;5.50;99.90;;;;;;4988179;28;20049;-87
2024/02/23 04:39:15;;;;;;;5.35;1.13;;;;;;;;;;4986296;28;20073;-85
2024/02/23 04:41:41;;;;;;;5.88;0.90;;;5.50;99.90;;;;;;4999253;28;20042;-87
2024/02/23 04:44:06;;;;;;;3.83;0.88;;;5.40;99.90;;;;;;4986232;28;20023;-87
2024/02/23 04:46:34;;;;;;;2.80;0.90;;;5.90;99.90;;;;;;5003923;28;20034;-86
2024/02/23 04:49:00;;;;;;;4.97;0.75;;;6.50;99.90;;;;;;5002877;28;20358;-88
2024/02/23 04:51:25;;;;;;;3.63;0.80;;;5.40;99.90;;;;;;4985971;28;20054;-88
2024/02/23 04:53:51;;;;;;;5.07;0.90;;;5.80;99.90;;;;;;4985572;28;20034;-83
2024/02/23 04:56:17;;;;;;;4.20;0.85;;;5.40;99.90;;;;;;5001199;28;20038;-83
2024/02/23 04:58:43;;;;;;;2.47;0.85;;;5.40;99.90;;;;;;4985913;28;20069;-84
2024/02/23 05:01:10;;;;;;;6.40;1.17;;;;;;;;;;4995034;28;20060;-88
2024/02/23 05:03:36;;;;;;;3.28;0.95;;;5.30;99.90;;;;;;5000293;28;20062;-86
2024/02/23 05:06:03;;;;;;;3.63;1.00;;;5.80;99.90;;;;;;4999633;28;20031;-83
2024/02/23 05:08:30;;;;;;;6.43;0.95;;;5.20;99.90;;;;;;4980310;28;20030;-82
2024/02/23 05:10:56;;;;;;;5.70;1.00;;;3.80;99.90;;;;;;4980409;28;20030;-84
2024/02/23 05:13:22;;;;;;;4.32;0.73;;;5.20;99.90;;;;;;4978318;28;20061;-87
2024/02/23 05:15:48;;;;;;;4.95;1.00;;;6.40;99.90;;;;;;4996487;28;20038;-83
2024/02/23 05:18:17;;;;;;;3.50;0.90;;;5.20;99.90;;;;;;4979214;28;20483;-87
2024/02/23 05:20:42;;;;;;;4.85;1.00;;;6.70;99.90;;;;;;4988040;28;20030;-88
2024/02/23 05:23:08;;;;;;;4.50;1.02;;;5.10;99.90;;;;;;4989371;28;20030;-84
2024/02/23 05:25:34;;;;;;;2.85;0.98;;;5.50;99.90;;;;;;4991616;28;20033;-84
2024/02/23 05:28:00;;;;;;;4.53;0.88;;;7.10;99.90;;;;;;5005686;28;20031;-84
2024/02/23 05:30:31;;;;;;;3.22;1.15;;;5.00;99.90;;;;;;4988278;28;20049;-87
2024/02/23 05:32:58;;;;;;;6.20;1.25;;;5.00;99.90;;;;;;4990713;28;20030;-84
2024/02/23 05:35:24;;;;;;;3.17;1.15;;;;;;;;;;5004663;28;20034;-84
2024/02/23 05:37:50;;;;;;;4.50;1.00;;;4.90;99.90;;;;;;5003743;28;20026;-86
2024/02/23 05:40:16;;;;;;;5.70;1.00;;;4.90;99.90;;;;;;4988052;28;20034;-87
2024/02/23 05:42:41;;;;;;;8.95;1.10;;;6.30;99.90;;;;;;4992843;28;20065;-86
2024/02/23 05:45:11;;;;;;;4.47;1.20;;;6.40;99.90;;;;;;4990820;28;20053;-84
2024/02/23 05:47:39;;;;;;;6.05;1.27;;;4.80;99.90;;;;;;5007412;28;20026;-86
2024/02/23 05:50:06;;;;;;;5.85;1.20;;;5.00;99.90;;;;;;5005982;28;20146;-85
2024/02/23 05:52:32;;;;;;;4.18;0.95;;;4.80;99.90;;;;;;4992077;28;20034;-85
2024/02/23 05:54:59;;;;;;;3.35;0.80;;;4.80;99.90;;;;;;5004809;28;20069;-88
2024/02/23 05:57:26;;;;;;;2.00;0.70;;;;;;;;;;5002869;28;20038;-88
2024/02/23 05:59:51;;;;;;;7.72;1.73;;;4.80;99.90;;;;;;4987535;28;20029;-87
2024/02/23 06:02:17;;;;;;;5.05;1.45;;;4.80;99.90;;;;;;4989442;28;20031;-87
2024/02/23 06:04:43;;;;;;;5.88;1.00;;;7.60;99.90;;;;;;4992685;28;20030;-85
2024/02/23 06:07:09;;;;;;;3.60;0.85;;;;;;;;;;4993818;28;20050;-84
2024/02/23 06:09:35;;;;;;;4.03;1.00;;;;;;;;;;5014967;28;20761;-87
2024/02/23 06:12:01;;;;;;;4.25;1.00;;;;;;;;;;4991151;28;20061;-88
2024/02/23 06:14:27;;;;;;;10.52;1.73;;;4.60;99.90;;;;;;4997324;28;20042;-83
2024/02/23 06:16:53;;;;;;;7.55;1.20;;;;;;;;;;5013613;28;20030;-85
2024/02/23 06:19:19;;;;;;;8.45;1.15;;;;;;;;;;4994893;28;20102;-86
2024/02/23 06:21:49;;;;;;;4.95;1.00;;;4.70;99.90;;;;;;4993779;28;20035;-84
2024/02/23 06:24:15;;;;;;;6.13;2.23;;;;;;;;;;4994223;28;20033;-87
2024/02/23 06:26:41;;;;;;;3.60;1.27;;;;;;;;;;4992834;28;20030;-85
2024/02/23 06:29:11;;;;;;;4.18;1.17;;;;;;;;;;4992836;28;20022;-84
2024/02/23 06:31:38;;;;;;;3.70;1.20;;;;;;;;;;4991868;28;20074;-84
2024/02/23 06:34:04;;;;;;;7.82;2.00;;;4.90;99.90;;;;;;5005562;28;20030;-84
2024/02/23 06:36:30;;;;;;;7.50;1.60;;;;;;;;;;4989544;28;20038;-82
2024/02/23 06:38:56;;;;;;;6.15;1.42;;;;;;;;;;4990422;28;20030;-86
2024/02/23 06:41:22;;;;;;;8.15;1.27;;;;;;;;;;5007955;28;20137;-86
2024/02/23 06:43:48;;;;;;;8.13;1.38;;;;;;;;;;4996324;28;20049;-83
2024/02/23 06:46:15;;;;;;;5.47;1.25;;;;;;;;;;5009514;28;20054;-85
2024/02/23 06:48:41;;;;;;;7.03;1.27;;;;;;;;;;5000139;28;20057;-86
2024/02/23 06:51:10;;;;;;;7.85;1.50;;;5.00;99.90;;;;;;5012743;28;20034;-85
2024/02/23 06:53:36;;;;;;;3.55;1.00;;;;;;;;;;4991576;28;20309;-88
2024/02/23 06:56:02;;;;;;;5.22;1.15;;;;;;;;;;5010927;28;20098;-84
2024/02/23 06:58:28;;;;;;;8.95;1.50;;;;;;;;;;5002038;28;20037;-88
2024/02/23 07:00:55;;;;;;;5.57;1.38;;;;;;;;;;5007594;28;20098;-81
2024/02/23 07:03:21;;;;;;;8.45;1.30;;;;;;;;;;4987250;28;20038;-83
2024/02/23 07:05:47;;;;;;;5.70;1.00;;;;;;;;;;5005744;28;20022;-84
2024/02/23 07:08:13;;;;;;;4.35;1.05;;;5.10;99.90;;;;;;4983422;28;20030;-81
2024/02/23 07:10:40;;;;;;;4.00;0.85;;;;;;;;;;4993201;28;20045;-84
2024/02/23 07:13:06;;;;;;;8.35;1.83;;;5.10;99.90;;;;;;5006000;28;20036;-85
2024/02/23 07:15:32;;;;;;;7.85;2.45;;;;;;;;;;5007696;28;20038;-80
2024/02/23 07:17:58;;;;;;;4.40;1.05;;;;;;;;;;5002048;28;20038;-86
2024/02/23 07:20:24;;;;;;;3.80;1.05;;;5.20;99.90;;;;;;4982487;28;20066;-84
2024/02/23 07:22:50;;;;;;;2.83;0.70;;;7.60;99.90;;;;;;5003475;28;20500;-88
2024/02/23 07:25:22;;;;;;;7.20;1.92;;;5.30;99.90;;;;;;5000059;28;20027;-84
2024/02/23 07:27:49;;;;;;;5.50;1.00;;;5.30;99.90;;;;;;4982449;28;20041;-85
2024/02/23 07:30:16;;;;;;;6.43;1.33;;;;;;;;;;4981770;28;20128;-85
2024/02/23 07:32:42;;;;;;;8.90;1.27;;;;;;;;;;4983687;28;20037;-85
2024/02/23 07:35:09;;;;;;;4.70;1.10;;;5.40;99.90;;;;;;4988143;28;20026;-86
2024/02/23 07:37:35;;;;;;;4.00;1.25;;;;;;;;;;4991321;28;20034;-80
2024/02/23 07:40:01;;;;;;;5.43;1.00;;;5.60;99.90;;;;;;5011200;28;20193;-80
2024/02/23 07:42:28;;;;;;;5.90;1.15;;;5.50;99.90;;;;;;5009042;28;20029;-84
2024/02/23 07:44:53;;;;;;;6.97;0.90;;;7.30;99.90;;;;;;5009090;28;20137;-82
2024/02/23 07:47:19;;;;;;;5.20;1.00;;;5.60;99.90;;;;;;4990619;28;20030;-86
2024/02/23 07:49:45;;;;;;;10.15;1.33;;;;;;;;;;4994816;28;20019;-85
2024/02/23 07:52:11;;;;;;;6.53;1.17;;;5.60;99.90;;;;;;5007545;28;20010;-81
2024/02/23 07:54:37;;;;;;;5.97;1.10;;;;;;;;;;4994476;28;20033;-82
2024/02/23 07:57:04;;;;;;;9.88;2.40;;;;;;;;;;5007747;28;20054;-83
2024/02/23 07:59:31;;;;;;;5.55;1.38;;;;;;;;;;5009745;28;20026;-81
2024/02/23 08:01:57;;;;;;;4.60;1.02;;;;;;;;;;5006659;28;20026;-83
2024/02/23 08:04:23;;;;;;;10.25;2.08;;;;;;;;;;5011496;28;20033;-85
2024/02/23 08:06:50;;;;;;;5.38;1.30;;;;;;;;;;5004426;28;20062;-81
2024/02/23 08:09:17;;;;;;;7.65;1.20;;;5.70;99.90;;;;;;4997246;28;20042;-84
2024/02/23 08:11:43;;;;;;;5.25;1.00;;;5.70;99.90;;;;;;5008801;28;20037;-83
2024/02/23 08:14:09;;;;;;;4.97;1.35;;;9.40;99.90;;;;;;5011423;28;20022;-79
2024/02/23 08:16:35;;;;;;;4.72;1.40;;;;;;;;;;4995388;28;20061;-83
2024/02/23 08:19:01;;;;;;;8.02;1.33;;;;;;;;;;4991582;28;20090;-81
2024/02/23 08:21:26;;;;;;;7.53;1.35;;;6.00;99.90;;;;;;5012125;28;20038;-83
2024/02/23 08:23:52;;;;;;;6.43;1.33;;;9.40;99.90;;;;;;4992584;28;20034;-82
2024/02/23 08:26:18;;;;;;;6.53;1.30;;;;;;;;;;4994776;28;20459;-82
2024/02/23 08:28:44;;;;;;;6.90;1.38;;;6.30;99.90;;;;;;5010155;28;20074;-81
2024/02/23 08:31:10;;;;;;;4.95;1.17;;;;;;;;;;4990858;28;20030;-87
2024/02/23 08:33:36;;;;;;;6.88;2.05;;;;;;;;;;4992437;28;20023;-84
2024/02/23 08:36:05;;;;;;;3.38;0.85;;;6.50;99.90;;;;;;5009475;28;20042;-87
2024/02/23 08:38:31;;;;;;;3.58;0.90;;;;;;;;;;4993959;28;20554;-86
2024/02/23 08:40:58;;;;;;;5.82;1.17;;;;;;;;;;5003919;28;20056;-81
2024/02/23 08:43:24;;;;;;;6.60;1.50;;;;;;;;;;4995213;28;20042;-81
2024/02/23 08:45:51;;;;;;;6.22;1.50;;;;;;;;;;5010834;28;20042;-84
2024/02/23 08:48:16;;;;;;;5.80;1.10;;;6.70;99.90;;;;;;4992226;28;20045;-82
2024/02/23 08:50:42;;;;;;;8.25;1.60;;;;;;;;;;4993233;28;20549;-85
2024/02/23 08:53:09;;;;;;;5.72;1.10;;;;;;;;;;5010018;28;20030;-82
2024/02/23 08:55:34;;;;;;;9.95;1.30;;;6.70;99.90;;;;;;4996754;28;20073;-86
2024/02/23 08:58:00;;;;;;;7.93;1.27;;;;;;;;;;4998049;28;20034;-85
2024/02/23 09:00:26;;;;;;;6.85;1.40;;;6.70;99.90;;;;;;4993549;28;20099;-83
2024/02/23 09:02:51;;;;;;;12.02;2.22;;;6.60;99.90;;;;;;4995676;28;20022;-83
2024/02/23 09:05:17;;;;;;;5.93;1.55;;;6.60;99.90;;;;;;5006408;28;20030;-83
2024/02/23 09:07:43;;;;;;;10.73;1.98;;;6.80;99.90;;;;;;5014360;28;20046;-86
2024/02/23 09:10:09;;;;;;;5.82;1.65;;;6.80;99.90;;;;;;5008819;28;20045;-84
2024/02/23 09:12:35;;;;;;;5.15;1.50;;;;;;;;;;4989653;28;20035;-86
2024/02/23 09:15:01;;;;;;;6.88;1.35;;;;;;;;;;4989169;28;20082;-86
2024/02/23 09:17:27;;;;;;;15.95;2.08;;;6.70;99.90;;;;;;4994400;28;20039;-85
2024/02/23 09:19:52;;;;;;;13.00;1.98;;;6.70;99.90;;;;;;4990640;28;20056;-80
2024/02/23 09:22:18;;;;;;;6.60;1.77;;;;;;;;;;4989016;28;20041;-86
2024/02/23 09:24:44;;;;;;;4.80;1.35;;;;;;;;;;5006661;28;20037;-85
2024/02/23 09:27:11;;;;;;;7.00;1.35;;;;;;;;;;5010491;28;20027;-84
2024/02/23 09:29:37;;;;;;;10.65;1.30;;;;;;;;;;4995873;28;20041;-85
2024/02/23 09:32:03;;;;;;;7.65;1.30;;;;;;;;;;5006904;28;20028;-83
2024/02/23 09:34:29;;;;;;;8.50;1.92;;;6.90;99.90;;;;;;4997594;28;20043;-88
2024/02/23 09:36:55;;;;;;;9.27;1.60;;;6.80;99.90;;;;;;4993069;28;20029;-87
2024/02/23 09:39:21;;;;;;;10.00;1.42;;;;;;;;;;4991858;28;20026;-84
2024/02/23 09:41:50;;;;;;;5.63;1.40;;;7.00;99.90;;;;;;4996431;28;20019;-84
2024/02/23 09:44:18;;;;;;;9.70;1.60;;;7.00;99.90;;;;;;4985461;28;20029;-84
2024/02/23 09:46:43;;;;;;;5.40;1.70;;;7.30;99.90;;;;;;4985048;28;20112;-88
2024/02/23 09:49:12;;;;;;;7.80;1.80;;;7.30;99.90;;;;;;5001476;28;20030;-84
2024/02/23 09:51:39;;;;;;;7.68;1.50;;;7.30;99.90;;;;;;5004057;28;20037;-87
2024/02/23 09:54:05;;;;;;;8.77;1.67;;;7.30;99.90;;;;;;5001006;28;20680;-88
2024/02/23 09:56:31;;;;;;;7.47;1.73;;;7.30;99.90;;;;;;5007716;28;20057;-88
2024/02/23 09:59:01;;;;;;;8.95;1.50;;;7.40;99.90;;;;;;4992777;28;20194;-85
2024/02/23 10:01:33;;;;;;;8.32;1.33;;;7.90;99.90;;;;;;4992655;28;20016;-86
2024/02/23 10:04:00;;;;;;;8.65;3.38;;;7.30;99.90;;;;;;5011103;28;20403;-87
2024/02/23 10:06:26;;;;;;;5.10;1.67;;;;;;;;;;4995999;28;20035;-85
2024/02/23 10:08:53;;;;;;;10.05;3.83;;;7.20;99.90;;;;;;5010029;28;20030;-84
2024/02/23 10:11:21;;;;;;;9.95;5.18;;;7.10;99.90;;;;;;5008267;28;20102;-88
2024/02/23 10:13:49;;;;;;;6.90;1.80;;;7.10;99.90;;;;;;4984580;28;20089;-87
2024/02/23 10:16:15;;;;;;;7.32;1.40;;;8.30;99.90;;;;;;4984692;28;20044;-83
2024/02/23 10:18:41;;;;;;;8.05;1.60;;;7.40;99.90;;;;;;4992092;28;20022;-86
2024/02/23 10:21:07;;;;;;;4.07;1.27;;;;;;;;;;5000934;28;20089;-87
2024/02/23 10:23:33;;;;;;;6.18;1.55;;;7.40;99.90;;;;;;5001878;28;20026;-88
2024/02/23 10:25:59;;;;;;;7.68;1.27;;;;;;;;;;4994230;28;20029;-83
2024/02/23 10:28:28;;;;;;;8.00;1.50;;;7.40;99.90;;;;;;5002797;28;20037;-84
2024/02/23 10:30:54;;;;;;;14.15;7.00;;;7.40;99.90;;;;;;4978534;28;20034;-83
2024/02/23 10:33:23;;;;;;;6.75;2.38;;;7.90;99.90;;;;;;4984188;28;20046;-87
2024/02/23 10:35:57;;;;;;;4.40;1.25;;;7.50;99.90;;;;;;5006295;28;20395;-87
2024/02/23 10:38:23;;;;;;;4.10;0.93;;;;;;;;;;4986871;28;20034;-85
2024/02/23 10:40:50;;;;;;;9.80;3.67;;;7.50;99.90;;;;;;5007445;28;20080;-88
2024/02/23 10:43:19;;;;;;;9.07;2.17;;;7.60;99.90;;;;;;4992574;28;20034;-85
2024/02/23 10:45:46;;;;;;;6.15;1.85;;;7.60;99.90;;;;;;4989305;28;20151;-87
2024/02/23 10:48:15;;;;;;;6.80;1.80;;;7.70;99.90;;;;;;4990689;28;20030;-85
2024/02/23 10:50:44;;;;;;;6.30;2.05;;;7.70;99.90;;;;;;4991582;28;20027;-85
2024/02/23 10:53:11;;;;;;;10.05;2.35;;;7.90;99.90;;;;;;4989308;28;20027;-87
2024/02/23 10:55:40;;;;;;;8.05;1.88;;;8.50;99.90;;;;;;5002688;28;20031;-88
2024/02/23 10:58:12;;;;;;;5.15;1.30;;;8.30;99.90;;;;;;4990628;28;20450;-86
2024/02/23 11:00:38;;;;;;;8.43;1.20;;;8.20;99.90;;;;;;5002471;28;20030;-84
2024/02/23 11:03:06;;;;;;;6.57;1.23;;;9.00;99.90;;;;;;5003915;28;20099;-84
2024/02/23 11:05:33;;;;;;;6.72;1.55;;;8.50;99.90;;;;;;5002586;28;20023;-84
2024/02/23 11:07:59;;;;;;;5.40;1.75;;;8.60;99.90;;;;;;4985995;28;20485;-87
2024/02/23 11:10:28;;;;;;;10.05;2.05;;;8.60;99.90;;;;;;4986777;28;20057;-84
2024/02/23 11:13:01;;;;;;;4.57;1.10;;;8.70;99.90;;;;;;4988060;28;20034;-84
2024/02/23 11:15:28;;;;;;;5.75;1.20;;;8.50;99.90;;;;;;4993169;28;20038;-87
2024/02/23 11:17:55;;;;;;;5.75;1.30;;;7.10;99.90;;;;;;4989828;28;20042;-87
2024/02/23 11:20:25;;;;;;;5.47;1.00;;;8.50;99.90;;;;;;4987403;28;20542;-83
2024/02/23 11:22:54;;;;;;;3.63;1.00;;;8.70;99.90;;;;;;5002161;28;20023;-87
2024/02/23 11:25:21;;;;;;;4.07;1.05;;;8.20;99.90;;;;;;4987884;28;20044;-86
2024/02/23 11:27:49;;;;;;;4.90;1.17;;;8.40;99.90;;;;;;4992961;28;20114;-86
2024/02/23 11:30:17;;;;;;;4.80;1.10;;;9.10;99.90;;;;;;4988807;28;20061;-87
2024/02/23 11:32:48;;;;;;;3.40;1.00;;;9.20;99.90;;;;;;5002140;28;20026;-82
2024/02/23 11:35:21;;;;;;;7.80;1.48;;;8.40;99.90;;;;;;5002282;28;20060;-85
2024/02/23 11:38:00;;;;;;;5.30;1.10;;;8.50;99.90;;;;;;4985430;28;20068;-84
2024/02/23 11:40:30;;;;;;;4.47;1.17;;;8.50;99.90;;;;;;4984852;28;20161;-85
2024/02/23 11:42:56;;;;;;;5.15;1.10;;;;;;;;;;5003445;28;20018;-83
2024/02/23 11:45:23;;;;;;;5.60;1.00;;;11.00;99.90;;;;;;4993663;28;20038;-84
2024/02/23 11:47:49;;;;;;;7.68;2.45;;;;;;;;;;5005252;28;20113;-87
2024/02/23 11:50:16;;;;;;;4.78;1.67;;;8.80;99.90;;;;;;4988506;28;20080;-86
2024/02/23 11:52:42;;;;;;;5.30;1.70;;;8.90;99.90;;;;;;4989819;28;20027;-85
2024/02/23 11:55:08;;;;;;;2.75;0.80;;;9.20;99.90;;;;;;5009201;28;20037;-85
2024/02/23 11:57:35;;;;;;;6.72;1.30;;;9.30;99.90;;;;;;4988470;28;20038;-87
2024/02/23 12:00:06;;;;;;;6.32;1.20;;;9.30;99.90;;;;;;4994777;28;20026;-84
2024/02/23 12:02:33;;;;;;;4.75;1.20;;;9.30;99.90;;;;;;4994233;28;20030;-85
2024/02/23 12:04:59;;;;;;;4.10;1.15;;;9.30;99.90;;;;;;5003323;28;20028;-85
2024/02/23 12:07:26;;;;;;;4.85;1.35;;;9.20;99.90;;;;;;5005032;28;20037;-85
2024/02/23 12:09:52;;;;;;;4.68;1.05;;;9.20;99.90;;;;;;5005467;28;20046;-85
2024/02/23 12:12:18;;;;;;;7.35;1.65;;;9.10;99.90;;;;;;5004696;28;20041;-85
2024/02/23 12:14:44;;;;;;;5.07;1.48;;;9.10;99.90;;;;;;4986387;28;20037;-85
2024/02/23 12:17:10;;;;;;;3.95;1.50;;;9.10;99.90;;;;;;4993424;28;20031;-86
2024/02/23 12:19:40;;;;;;;6.78;2.08;;;9.10;99.90;;;;;;4994470;28;20033;-85
2024/02/23 12:22:06;;;;;;;4.53;1.30;;;;;;;;;;5013532;28;20033;-85
2024/02/23 12:24:31;;;;;;;4.45;1.13;;;9.30;99.90;;;;;;5012113;28;20090;-83
2024/02/23 12:26:58;;;;;;;5.40;1.30;;;9.20;99.90;;;;;;4993865;28;20030;-85
2024/02/23 12:29:24;;;;;;;9.05;1.23;;;9.30;99.90;;;;;;5026465;28;20065;-87
2024/02/23 12:31:51;;;;;;;5.32;0.90;;;9.40;99.90;;;;;;5029102;28;20033;-89
2024/02/23 12:34:17;;;;;;;5.88;1.00;;;9.40;99.90;;;;;;5024176;28;20037;-87
2024/02/23 12:36:43;;;;;;;3.58;1.20;;;;;;;;;;4993346;28;20018;-84
2024/02/23 12:39:09;;;;;;;5.05;1.30;;;9.20;99.90;;;;;;5010314;28;20025;-85
2024/02/23 12:41:35;;;;;;;5.38;0.98;;;;;;;;;;4993228;28;20030;-87
2024/02/23 12:44:01;;;;;;;4.90;1.02;;;;;;;;;;5010672;28;20060;-86
2024/02/23 12:46:27;;;;;;;5.25;1.10;;;;;;;;;;5010878;28;20050;-89
2024/02/23 12:48:53;;;;;;;6.45;1.52;;;;;;;;;;5010233;28;20057;-87
2024/02/23 12:51:24;;;;;;;5.25;1.20;;;9.00;99.90;;;;;;5008860;28;20026;-85
2024/02/23 12:53:50;;;;;;;3.13;1.17;;;;;;;;;;4992295;28;20098;-87
2024/02/23 12:56:17;;;;;;;4.85;1.70;;;;;;;;;;4992358;28;20053;-85
2024/02/23 12:58:44;;;;;;;4.43;1.00;;;9.30;99.90;;;;;;5008564;28;20632;-88
2024/02/23 13:01:13;;;;;;;4.90;1.00;;;9.40;99.90;;;;;;4991679;28;20029;-84
2024/02/23 18:38:26;;;;;;;;;;;6.70;99.90;;;;;;5033609;28;20137;-85
